createdAt,value
2023-04-22T00:01:25.320Z,8.23
2023-04-22T00:03:52.386Z,7.93
2023-04-22T00:06:19.537Z,7.67
2023-04-22T00:08:46.302Z,8.00
2023-04-22T00:11:13.140Z,9.23
2023-04-22T00:13:39.910Z,9.40
2023-04-22T00:16:07.220Z,9.77
2023-04-22T00:18:36.928Z,11.17
2023-04-22T00:21:04.642Z,12.17
2023-04-22T00:23:31.642Z,13.93
2023-04-22T00:25:58.525Z,11.40
2023-04-22T00:28:25.425Z,10.33
2023-04-22T00:30:52.293Z,9.00
2023-04-22T00:33:19.064Z,8.50
2023-04-22T00:35:49.141Z,9.23
2023-04-22T00:38:16.531Z,9.60
2023-04-22T00:40:43.299Z,8.70
2023-04-22T00:43:10.818Z,10.17
2023-04-22T00:45:38.025Z,9.93
2023-04-22T00:48:23.558Z,9.10
2023-04-22T00:50:50.397Z,11.00
2023-04-22T00:53:17.226Z,10.07
2023-04-22T00:55:44.157Z,9.93
2023-04-22T00:58:11.158Z,10.37
2023-04-22T01:00:38.206Z,9.73
2023-04-22T01:03:07.416Z,9.20
2023-04-22T01:05:34.887Z,10.60
2023-04-22T01:08:02.178Z,11.10
2023-04-22T01:10:29.692Z,10.07
2023-04-22T01:12:56.541Z,11.27
2023-04-22T01:15:23.414Z,10.67
2023-04-22T01:17:51.118Z,9.47
2023-04-22T01:20:19.526Z,9.07
2023-04-22T01:22:49.138Z,10.53
2023-04-22T01:25:16.319Z,11.80
2023-04-22T01:27:44.233Z,13.90
2023-04-22T01:30:11.538Z,11.70
2023-04-22T01:32:40.668Z,13.23
2023-04-22T01:35:08.648Z,13.70
2023-04-22T01:37:35.642Z,13.57
2023-04-22T01:40:02.795Z,15.50
2023-04-22T01:42:30.499Z,11.97
2023-04-22T01:44:57.357Z,15.00
2023-04-22T01:47:42.672Z,14.83
2023-04-22T01:50:10.128Z,14.43
2023-04-22T01:52:38.572Z,13.87
2023-04-22T01:55:05.939Z,15.97
2023-04-22T01:57:32.725Z,15.50
2023-04-22T02:00:00.859Z,14.43
2023-04-22T02:02:27.896Z,12.57
2023-04-22T02:04:54.880Z,15.00
2023-04-22T02:07:22.168Z,16.40
2023-04-22T02:09:50.989Z,14.77
2023-04-22T02:12:17.819Z,13.57
2023-04-22T02:14:44.635Z,13.70
2023-04-22T02:17:11.735Z,13.63
2023-04-22T02:19:39.717Z,12.47
2023-04-22T02:22:06.690Z,14.27
2023-04-22T02:24:33.459Z,14.73
2023-04-22T02:27:00.389Z,12.60
2023-04-22T02:29:28.878Z,13.07
2023-04-22T02:31:59.976Z,11.43
2023-04-22T02:34:27.694Z,11.13
2023-04-22T02:36:54.640Z,10.47
2023-04-22T02:39:21.480Z,10.87
2023-04-22T02:41:48.423Z,11.97
2023-04-22T02:44:15.566Z,12.37
2023-04-22T02:46:42.353Z,12.47
2023-04-22T02:49:09.216Z,12.63
2023-04-22T02:51:38.956Z,9.83
2023-04-22T02:54:05.959Z,10.73
2023-04-22T02:56:32.708Z,10.87
2023-04-22T02:58:59.538Z,11.30
2023-04-22T03:01:26.473Z,13.70
2023-04-22T03:03:57.148Z,10.57
2023-04-22T03:06:24.193Z,10.23
2023-04-22T03:08:51.324Z,10.63
2023-04-22T03:11:18.190Z,11.97
2023-04-22T03:13:45.027Z,10.10
2023-04-22T03:16:30.339Z,12.37
2023-04-22T03:19:17.863Z,9.80
2023-04-22T03:21:44.673Z,9.13
2023-04-22T03:24:11.755Z,8.47
2023-04-22T03:26:44.526Z,8.10
2023-04-22T03:29:11.342Z,8.80
2023-04-22T03:31:38.217Z,8.03
2023-04-22T03:34:05.290Z,8.70
2023-04-22T03:36:32.650Z,6.33
2023-04-22T03:38:59.683Z,6.73
2023-04-22T03:42:05.501Z,6.47
2023-04-22T03:44:33.805Z,6.73
2023-04-22T03:47:01.643Z,9.17
2023-04-22T03:49:34.477Z,5.20
2023-04-22T03:52:01.665Z,6.53
2023-04-22T03:54:28.832Z,8.67
2023-04-22T03:56:56.238Z,6.07
2023-04-22T03:59:42.773Z,7.40
2023-04-22T04:02:11.941Z,6.07
2023-04-22T04:04:38.970Z,6.70
2023-04-22T04:07:08.087Z,5.30
2023-04-22T04:09:34.963Z,6.70
2023-04-22T04:12:03.044Z,5.67
2023-04-22T04:14:34.908Z,5.63
2023-04-22T04:17:03.755Z,8.43
2023-04-22T04:19:33.579Z,5.77
2023-04-22T04:22:01.855Z,6.73
2023-04-22T04:24:32.087Z,5.90
2023-04-22T04:27:05.188Z,7.83
2023-04-22T04:29:41.397Z,4.83
2023-04-22T04:32:14.279Z,8.00
2023-04-22T04:34:42.666Z,5.30
2023-04-22T04:37:11.740Z,4.60
2023-04-22T04:39:50.598Z,7.03
2023-04-22T04:42:21.182Z,5.13
2023-04-22T04:44:53.768Z,4.23
2023-04-22T04:47:22.742Z,5.93
2023-04-22T04:49:54.414Z,5.37
2023-04-22T04:52:21.308Z,5.13
2023-04-22T04:54:48.132Z,6.03
2023-04-22T04:57:15.476Z,6.53
2023-04-22T04:59:42.807Z,5.63
2023-04-22T05:02:10.458Z,4.80
2023-04-22T05:04:37.537Z,5.50
2023-04-22T05:07:05.327Z,5.77
2023-04-22T05:09:37.508Z,5.17
2023-04-22T05:12:05.065Z,7.27
2023-04-22T05:14:32.045Z,6.30
2023-04-22T05:16:58.948Z,5.37
2023-04-22T05:19:26.050Z,6.53
2023-04-22T05:21:54.694Z,7.07
2023-04-22T05:24:21.499Z,7.53
2023-04-22T05:26:49.436Z,7.03
2023-04-22T05:29:19.376Z,5.43
2023-04-22T05:31:46.525Z,6.00
2023-04-22T05:34:13.549Z,5.37
2023-04-22T05:36:40.792Z,5.87
2023-04-22T05:39:07.866Z,5.70
2023-04-22T05:41:35.571Z,7.00
2023-04-22T05:44:03.773Z,5.30
2023-04-22T05:46:31.117Z,6.53
2023-04-22T05:48:58.252Z,5.73
2023-04-22T05:51:43.460Z,7.57
2023-04-22T05:54:13.076Z,4.77
2023-04-22T05:56:40.140Z,6.60
2023-04-22T05:59:07.235Z,5.10
2023-04-22T06:01:34.060Z,5.53
2023-04-22T06:04:10.061Z,5.60
2023-04-22T06:06:37.526Z,6.13
2023-04-22T06:09:06.138Z,6.63
2023-04-22T06:11:33.813Z,6.57
2023-04-22T06:14:01.262Z,6.23
2023-04-22T06:16:28.501Z,9.37
2023-04-22T06:18:55.469Z,5.07
2023-04-22T06:21:23.346Z,5.63
2023-04-22T06:23:50.620Z,5.30
2023-04-22T06:26:36.223Z,13.47
2023-04-22T06:29:21.335Z,6.67
2023-04-22T06:31:48.304Z,9.40
2023-04-22T06:34:15.287Z,7.03
2023-04-22T06:36:44.290Z,9.30
2023-04-22T06:39:11.229Z,11.60
2023-04-22T06:41:49.166Z,7.40
2023-04-22T06:44:34.147Z,7.77
2023-04-22T06:47:19.722Z,9.53
2023-04-22T06:49:59.149Z,7.97
2023-04-22T06:52:30.800Z,7.37
2023-04-22T06:54:59.070Z,6.17
2023-04-22T06:57:26.078Z,6.50
2023-04-22T06:59:52.904Z,5.73
2023-04-22T07:02:19.840Z,17.47
2023-04-22T07:04:46.774Z,9.30
2023-04-22T07:07:14.021Z,4.90
2023-04-22T07:09:41.641Z,4.27
2023-04-22T07:12:09.038Z,4.20
2023-04-22T07:14:35.883Z,5.13
2023-04-22T07:17:02.693Z,7.07
2023-04-22T07:19:30.226Z,3.90
2023-04-22T07:21:56.996Z,5.63
2023-04-22T07:24:23.814Z,7.67
2023-04-22T07:26:51.299Z,4.83
2023-04-22T07:29:18.052Z,4.78
2023-04-22T07:31:44.911Z,4.17
2023-04-22T07:34:11.859Z,3.87
2023-04-22T07:36:38.742Z,3.60
2023-04-22T07:39:05.816Z,4.73
2023-04-22T07:41:32.561Z,4.67
2023-04-22T07:43:59.977Z,4.10
2023-04-22T07:46:26.764Z,4.43
2023-04-22T07:48:53.507Z,2.97
2023-04-22T07:54:05.056Z,5.40
2023-04-22T07:56:31.812Z,7.43
2023-04-22T07:58:58.866Z,6.63
2023-04-22T08:01:25.757Z,6.40
2023-04-22T08:04:11.294Z,6.32
2023-04-22T08:06:38.604Z,3.60
2023-04-22T08:09:05.474Z,5.97
2023-04-22T08:11:32.314Z,9.37
2023-04-22T08:13:59.090Z,4.05
2023-04-22T08:16:44.871Z,6.63
2023-04-22T08:19:30.401Z,10.55
2023-04-22T08:21:58.215Z,3.50
2023-04-22T08:24:43.578Z,6.50
2023-04-22T08:27:10.930Z,5.00
2023-04-22T08:29:38.093Z,4.90
2023-04-22T08:32:26.482Z,4.13
2023-04-22T08:34:54.330Z,3.60
2023-04-22T08:37:29.726Z,3.30
2023-04-22T08:39:56.474Z,3.20
2023-04-22T08:42:23.577Z,5.47
2023-04-22T08:44:50.925Z,3.72
2023-04-22T08:47:19.470Z,3.77
2023-04-22T08:49:46.546Z,3.00
2023-04-22T08:52:15.388Z,4.75
2023-04-22T08:54:42.696Z,3.80
2023-04-22T08:57:11.186Z,2.92
2023-04-22T08:59:39.293Z,5.57
2023-04-22T09:02:07.817Z,3.83
2023-04-22T09:04:34.945Z,5.57
2023-04-22T09:07:02.244Z,3.67
2023-04-22T09:09:30.896Z,4.65
2023-04-22T09:12:16.237Z,3.53
2023-04-22T09:15:02.435Z,3.70
2023-04-22T09:17:34.065Z,4.13
2023-04-22T09:20:02.710Z,10.60
2023-04-22T09:22:38.154Z,5.75
2023-04-22T09:25:05.572Z,5.82
2023-04-22T09:27:34.060Z,4.15
2023-04-22T09:30:01.249Z,6.68
2023-04-22T09:32:52.730Z,6.25
2023-04-22T09:35:41.034Z,3.05
2023-04-22T09:38:10.052Z,3.95
2023-04-22T09:40:41.170Z,5.90
2023-04-22T09:43:09.234Z,3.65
2023-04-22T09:45:38.453Z,2.72
2023-04-22T09:48:18.652Z,5.60
2023-04-22T09:53:37.445Z,8.05
2023-04-22T09:56:59.861Z,4.65
2023-04-22T09:59:28.972Z,2.30
2023-04-22T10:01:58.739Z,2.30
2023-04-22T10:04:26.054Z,5.95
2023-04-22T10:06:53.861Z,3.63
2023-04-22T10:09:24.230Z,2.50
2023-04-22T10:11:54.128Z,5.50
2023-04-22T10:14:43.458Z,4.75
2023-04-22T10:17:50.418Z,4.88
2023-04-22T10:20:18.864Z,5.18
2023-04-22T10:22:46.173Z,2.63
2023-04-22T10:25:21.305Z,3.53
2023-04-22T10:28:08.116Z,4.53
2023-04-22T10:30:37.546Z,4.07
2023-04-22T10:33:27.715Z,2.45
2023-04-22T10:36:20.308Z,2.38
2023-04-22T10:39:05.848Z,2.47
2023-04-22T10:41:34.242Z,2.88
2023-04-22T10:44:06.145Z,5.28
2023-04-22T10:46:33.037Z,5.50
2023-04-22T10:49:13.406Z,2.25
2023-04-22T10:51:50.917Z,2.60
2023-04-22T10:54:30.572Z,8.27
2023-04-22T10:57:02.232Z,3.90
2023-04-22T10:59:50.191Z,3.58
2023-04-22T11:02:18.811Z,5.22
2023-04-22T11:04:46.111Z,4.50
2023-04-22T11:07:30.050Z,3.95
2023-04-22T11:10:05.446Z,8.00
2023-04-22T11:12:43.923Z,9.65
2023-04-22T11:15:22.317Z,6.72
2023-04-22T11:17:54.025Z,7.10
2023-04-22T11:20:21.324Z,4.90
2023-04-22T11:22:56.155Z,8.05
2023-04-22T11:25:24.389Z,8.45
2023-04-22T11:27:52.239Z,6.20
2023-04-22T11:30:20.975Z,12.65
2023-04-22T11:32:59.979Z,8.63
2023-04-22T11:35:34.899Z,6.80
2023-04-22T11:38:02.732Z,6.95
2023-04-22T11:40:33.422Z,4.85
2023-04-22T11:43:02.983Z,7.15
2023-04-22T11:45:32.142Z,9.18
2023-04-22T11:47:59.653Z,11.70
2023-04-22T11:50:28.859Z,7.22
2023-04-22T11:52:58.004Z,4.53
2023-04-22T11:55:28.020Z,9.48
2023-04-22T11:58:01.697Z,5.10
2023-04-22T12:00:33.129Z,7.18
2023-04-22T12:03:02.844Z,7.50
2023-04-22T12:05:37.816Z,8.43
2023-04-22T12:08:31.834Z,8.48
2023-04-22T12:11:01.325Z,6.70
2023-04-22T12:13:49.344Z,6.28
2023-04-22T12:16:19.348Z,5.97
2023-04-22T12:18:50.430Z,7.03
2023-04-22T12:24:15.081Z,5.72
2023-04-22T12:26:41.939Z,12.55
2023-04-22T12:29:08.665Z,9.48
2023-04-22T12:31:35.663Z,8.00
2023-04-22T12:34:02.642Z,8.52
2023-04-22T12:36:29.501Z,7.85
2023-04-22T12:39:15.352Z,9.88
2023-04-22T12:41:42.238Z,6.70
2023-04-22T12:44:08.963Z,7.25
2023-04-22T12:46:36.382Z,15.40
2023-04-22T12:49:03.223Z,13.52
2023-04-22T12:51:30.055Z,7.15
2023-04-22T12:53:56.895Z,8.45
2023-04-22T12:56:23.742Z,7.93
2023-04-22T12:58:50.815Z,12.35
2023-04-22T13:01:17.652Z,9.82
2023-04-22T13:04:22.117Z,15.38
2023-04-22T13:06:56.097Z,8.48
2023-04-22T13:09:24.772Z,14.02
2023-04-22T13:11:52.515Z,8.57
2023-04-22T13:14:19.561Z,9.68
2023-04-22T13:16:46.518Z,7.45
2023-04-22T13:19:13.917Z,12.43
2023-04-22T13:21:40.778Z,9.80
2023-04-22T13:24:07.761Z,9.68
2023-04-22T13:26:36.304Z,7.97
2023-04-22T13:29:03.101Z,11.73
2023-04-22T13:31:29.939Z,12.35
2023-04-22T13:33:56.909Z,8.43
2023-04-22T13:36:23.754Z,12.20
2023-04-22T13:38:51.202Z,10.05
2023-04-22T13:41:18.026Z,12.38
2023-04-22T13:43:44.869Z,11.50
2023-04-22T13:46:11.704Z,7.43
2023-04-22T13:48:38.497Z,10.65
2023-04-22T13:51:05.470Z,15.25
2023-04-22T13:53:34.158Z,11.25
2023-04-22T13:56:01.450Z,10.95
2023-04-22T13:58:28.321Z,9.32
2023-04-22T14:00:55.548Z,11.52
2023-04-22T14:03:22.698Z,13.23
2023-04-22T14:05:49.663Z,10.90
2023-04-22T14:08:16.657Z,9.20
2023-04-22T14:10:43.577Z,11.57
2023-04-22T14:13:10.371Z,11.65
2023-04-22T14:15:38.587Z,10.13
2023-04-22T14:18:05.454Z,12.90
2023-04-22T14:20:32.265Z,14.85
2023-04-22T14:22:59.098Z,12.90
2023-04-22T14:25:25.869Z,11.65
2023-04-22T14:27:52.739Z,11.75
2023-04-22T14:30:21.769Z,16.02
2023-04-22T14:32:49.470Z,10.82
2023-04-22T14:35:16.329Z,8.32
2023-04-22T14:37:45.111Z,12.32
2023-04-22T14:40:12.579Z,13.65
2023-04-22T14:42:39.563Z,12.88
2023-04-22T14:47:51.339Z,13.15
2023-04-22T14:50:18.209Z,16.88
2023-04-22T14:52:45.091Z,14.00
2023-04-22T14:55:21.979Z,17.48
2023-04-22T14:57:56.831Z,10.07
2023-04-22T15:00:25.233Z,11.18
2023-04-22T15:02:53.991Z,10.50
2023-04-22T15:05:22.397Z,11.63
2023-04-22T15:07:52.383Z,9.05
2023-04-22T15:10:19.596Z,10.90
2023-04-22T15:12:46.516Z,14.40
2023-04-22T15:15:51.223Z,11.73
2023-04-22T15:18:18.327Z,11.65
2023-04-22T15:20:45.580Z,11.18
2023-04-22T15:23:12.952Z,10.32
2023-04-22T15:25:39.918Z,11.30
2023-04-22T15:28:06.850Z,10.75
2023-04-22T15:30:33.712Z,15.43
2023-04-22T15:33:00.584Z,11.45
2023-04-22T15:35:27.455Z,11.10
2023-04-22T15:37:54.538Z,11.70
2023-04-22T15:40:21.384Z,19.27
2023-04-22T15:42:48.307Z,16.20
2023-04-22T15:45:15.269Z,18.42
2023-04-22T15:47:42.220Z,15.20
2023-04-22T15:50:10.226Z,17.88
2023-04-22T15:52:38.199Z,14.80
2023-04-22T15:55:06.476Z,11.02
2023-04-22T15:57:35.415Z,12.90
2023-04-22T16:00:13.412Z,11.48
2023-04-22T16:02:42.592Z,13.82
2023-04-22T16:05:28.728Z,19.42
2023-04-22T16:07:56.442Z,9.93
2023-04-22T16:10:26.242Z,14.60
2023-04-22T16:12:54.262Z,14.30
2023-04-22T16:15:23.607Z,15.38
2023-04-22T16:17:50.623Z,13.55
2023-04-22T16:20:17.545Z,16.23
2023-04-22T16:22:44.369Z,15.68
2023-04-22T16:25:11.211Z,15.02
2023-04-22T16:27:38.082Z,16.50
2023-04-22T16:30:05.727Z,11.98
2023-04-22T16:32:32.742Z,12.98
2023-04-22T16:34:59.600Z,17.27
2023-04-22T16:40:31.295Z,15.82
2023-04-22T16:43:03.233Z,21.58
2023-04-22T16:45:30.163Z,14.48
2023-04-22T16:47:57.210Z,18.58
2023-04-22T16:50:24.739Z,13.95
2023-04-22T16:52:51.712Z,11.30
2023-04-22T16:55:18.597Z,11.07
2023-04-22T16:57:50.655Z,10.13
2023-04-22T17:00:18.736Z,11.63
2023-04-22T17:02:45.992Z,16.15
2023-04-22T17:05:12.892Z,18.08
2023-04-22T17:07:39.759Z,15.02
2023-04-22T17:10:45.375Z,12.98
2023-04-22T17:13:13.562Z,11.30
2023-04-22T17:15:41.213Z,9.20
2023-04-22T17:20:52.789Z,9.60
2023-04-22T17:23:39.077Z,12.13
2023-04-22T17:26:05.963Z,14.93
2023-04-22T17:28:32.755Z,11.80
2023-04-22T17:30:59.621Z,12.93
2023-04-22T17:33:30.186Z,11.18
2023-04-22T17:35:57.012Z,12.05
2023-04-22T17:38:23.783Z,14.52
2023-04-22T17:40:50.571Z,15.07
2023-04-22T17:43:17.338Z,10.65
2023-04-22T17:45:44.180Z,15.60
2023-04-22T17:48:10.949Z,9.77
2023-04-22T17:50:37.804Z,9.43
2023-04-22T17:53:04.591Z,15.63
2023-04-22T17:55:35.127Z,8.52
2023-04-22T17:58:05.672Z,8.52
2023-04-22T18:00:34.124Z,16.75
2023-04-22T18:03:01.236Z,11.98
2023-04-22T18:05:46.648Z,18.02
2023-04-22T18:08:13.517Z,16.90
2023-04-22T18:10:40.459Z,13.80
2023-04-22T18:13:07.301Z,16.30
2023-04-22T18:15:34.055Z,13.77
2023-04-22T18:18:01.379Z,13.73
2023-04-22T18:20:28.224Z,12.68
2023-04-22T18:22:56.509Z,13.32
2023-04-22T18:25:24.318Z,18.35
2023-04-22T18:27:55.015Z,9.23
2023-04-22T18:30:22.677Z,12.88
2023-04-22T18:32:49.730Z,13.35
2023-04-22T18:35:17.026Z,11.55
2023-04-22T18:37:44.845Z,9.95
2023-04-22T18:40:13.884Z,12.35
2023-04-22T18:42:44.722Z,17.67
2023-04-22T18:45:12.071Z,13.02
2023-04-22T18:50:23.727Z,10.82
2023-04-22T18:52:50.634Z,13.00
2023-04-22T18:55:17.514Z,11.25
2023-04-22T18:57:44.345Z,8.45
2023-04-22T19:00:13.360Z,11.48
2023-04-22T19:02:42.398Z,9.05
2023-04-22T19:05:09.909Z,12.68
2023-04-22T19:07:55.494Z,10.93
2023-04-22T19:10:22.254Z,12.95
2023-04-22T19:12:49.215Z,17.52
2023-04-22T19:15:16.153Z,11.80
2023-04-22T19:17:42.916Z,10.73
2023-04-22T19:25:57.594Z,11.77
2023-04-22T19:28:24.356Z,11.40
2023-04-22T19:30:51.829Z,11.20
2023-04-22T19:33:18.685Z,11.55
2023-04-22T19:35:46.381Z,12.32
2023-04-22T19:38:16.363Z,8.88
2023-04-22T19:40:43.174Z,10.20
2023-04-22T19:43:09.906Z,10.40
2023-04-22T19:45:36.784Z,7.72
2023-04-22T19:48:04.017Z,7.38
2023-04-22T19:50:30.935Z,6.05
2023-04-22T19:53:03.584Z,8.25
2023-04-22T19:55:32.064Z,12.77
2023-04-22T19:57:59.641Z,11.50
2023-04-22T20:00:26.600Z,11.25
2023-04-22T20:02:53.657Z,6.55
2023-04-22T20:05:21.067Z,8.65
2023-04-22T20:07:50.057Z,7.90
2023-04-22T20:10:17.571Z,6.38
2023-04-22T20:12:46.016Z,7.70
2023-04-22T20:15:13.259Z,12.77
2023-04-22T20:17:40.353Z,7.45
2023-04-22T20:20:12.920Z,13.93
2023-04-22T20:23:01.431Z,11.18
2023-04-22T20:25:29.477Z,9.30
2023-04-22T20:27:56.720Z,9.37
2023-04-22T20:30:23.628Z,7.17
2023-04-22T20:32:50.580Z,5.57
2023-04-22T20:35:17.657Z,9.27
2023-04-22T20:37:46.585Z,7.73
2023-04-22T20:40:15.178Z,10.30
2023-04-22T20:42:42.290Z,9.17
2023-04-22T20:45:14.967Z,7.50
2023-04-22T20:47:44.912Z,12.43
2023-04-22T20:50:13.389Z,11.07
2023-04-22T20:52:40.547Z,8.83
2023-04-22T20:55:07.754Z,11.13
2023-04-22T20:57:35.327Z,13.33
2023-04-22T21:00:02.244Z,8.03
2023-04-22T21:02:29.784Z,6.27
2023-04-22T21:05:16.094Z,7.63
2023-04-22T21:07:44.153Z,8.33
2023-04-22T21:10:11.198Z,6.97
2023-04-22T21:15:23.147Z,8.93
2023-04-22T21:17:55.003Z,8.40
2023-04-22T21:20:44.406Z,7.27
2023-04-22T21:23:13.250Z,4.93
2023-04-22T21:25:40.501Z,7.50
2023-04-22T21:28:07.684Z,6.87
2023-04-22T21:30:34.910Z,11.23
2023-04-22T21:33:01.736Z,6.57
2023-04-22T21:35:30.005Z,13.33
2023-04-22T21:37:57.163Z,8.90
2023-04-22T21:40:24.053Z,9.70
2023-04-22T21:42:51.086Z,6.17
2023-04-22T21:45:18.104Z,9.67
2023-04-22T21:47:44.904Z,10.40
2023-04-22T21:50:31.347Z,11.33
2023-04-22T21:52:58.337Z,10.77
2023-04-22T21:55:25.238Z,9.70
2023-04-22T21:57:52.212Z,7.67
2023-04-22T22:00:19.334Z,8.37
2023-04-22T22:02:47.194Z,5.53
2023-04-22T22:05:15.783Z,11.10
2023-04-22T22:07:43.083Z,9.50
2023-04-22T22:10:14.344Z,10.57
2023-04-22T22:12:41.724Z,9.77
2023-04-22T22:15:09.185Z,9.75
2023-04-22T22:17:40.306Z,9.53
2023-04-22T22:20:11.775Z,13.27
2023-04-22T22:22:42.909Z,18.23
2023-04-22T22:25:12.420Z,9.43
2023-04-22T22:27:47.203Z,13.73
2023-04-22T22:30:15.461Z,12.13
2023-04-22T22:32:42.254Z,13.27
2023-04-22T22:35:09.607Z,12.07
2023-04-22T22:37:36.456Z,11.57
2023-04-22T22:40:03.886Z,10.40
2023-04-22T22:42:30.753Z,10.93
2023-04-22T22:44:57.846Z,12.47
2023-04-22T22:47:25.308Z,9.77
2023-04-22T22:49:52.429Z,11.73
2023-04-22T22:52:19.399Z,15.73
2023-04-22T22:54:48.710Z,17.70
2023-04-22T22:57:15.770Z,11.77
2023-04-22T22:59:42.597Z,14.00
2023-04-22T23:02:09.421Z,13.47
2023-04-22T23:04:37.589Z,12.67
2023-04-22T23:07:04.617Z,12.97
2023-04-22T23:09:31.546Z,18.03
2023-04-22T23:11:58.468Z,18.30
2023-04-22T23:14:27.055Z,13.43
2023-04-22T23:16:54.106Z,14.40
2023-04-22T23:19:21.179Z,13.70
2023-04-22T23:21:48.836Z,13.67
2023-04-22T23:24:15.984Z,10.60
2023-04-22T23:29:28.213Z,16.63
2023-04-22T23:31:56.529Z,12.27
2023-04-22T23:37:29.646Z,10.77
2023-04-22T23:39:56.544Z,17.83
2023-04-22T23:42:23.474Z,11.90
2023-04-22T23:44:50.358Z,9.73
2023-04-22T23:47:17.309Z,13.43
2023-04-22T23:50:03.434Z,16.93
2023-04-22T23:52:30.488Z,11.67
2023-04-22T23:54:57.528Z,13.27
2023-04-22T23:57:24.728Z,11.90
2023-04-22T23:59:51.902Z,16.33
